createdAt,value
2023-02-22T00:00:36.715Z,100698.69
2023-02-22T00:03:25.164Z,100701.20
2023-02-22T00:06:00.253Z,100701.30
2023-02-22T00:08:32.065Z,100702.08
2023-02-22T00:11:08.759Z,100700.47
2023-02-22T00:13:45.351Z,100702.20
2023-02-22T00:16:20.082Z,100704.18
2023-02-22T00:18:51.014Z,100703.48
2023-02-22T00:21:24.657Z,100702.86
2023-02-22T00:23:57.868Z,100704.19
2023-02-22T00:26:34.597Z,100702.23
2023-02-22T00:29:09.027Z,100703.64
2023-02-22T00:31:41.844Z,100701.62
2023-02-22T00:34:16.507Z,100702.20
2023-02-22T00:36:50.279Z,100702.70
2023-02-22T00:39:22.915Z,100709.79
2023-02-22T00:41:56.465Z,100709.18
2023-02-22T00:44:29.243Z,100714.37
2023-02-22T00:47:01.617Z,100709.59
2023-02-22T00:49:35.035Z,100711.52
2023-02-22T00:52:11.502Z,100712.64
2023-02-22T00:54:44.685Z,100712.98
2023-02-22T00:57:18.551Z,100716.66
2023-02-22T00:59:51.670Z,100715.52
2023-02-22T01:02:24.430Z,100716.10
2023-02-22T01:04:57.396Z,100721.26
2023-02-22T01:07:31.898Z,100720.75
2023-02-22T01:10:05.183Z,100726.63
2023-02-22T01:12:37.889Z,100728.92
2023-02-22T01:15:14.868Z,100727.30
2023-02-22T01:17:47.314Z,100729.13
2023-02-22T01:20:20.975Z,100727.27
2023-02-22T01:22:55.366Z,100728.14
2023-02-22T01:25:31.021Z,100727.59
2023-02-22T01:28:05.325Z,100729.85
2023-02-22T01:30:38.991Z,100732.42
2023-02-22T01:33:15.596Z,100733.94
2023-02-22T01:35:50.182Z,100734.35
2023-02-22T01:38:22.809Z,100729.96
2023-02-22T01:40:55.579Z,100733.30
2023-02-22T01:43:29.805Z,100734.22
2023-02-22T01:46:05.180Z,100738.61
2023-02-22T01:48:44.571Z,100736.00
2023-02-22T01:51:21.187Z,100732.58
2023-02-22T01:53:58.803Z,100738.19
2023-02-22T01:56:33.562Z,100717.44
2023-02-22T01:59:11.372Z,100730.15
2023-02-22T02:01:46.242Z,100730.20
2023-02-22T02:04:25.548Z,100734.04
2023-02-22T02:07:06.117Z,100737.27
2023-02-22T02:09:46.046Z,100742.07
2023-02-22T02:12:21.154Z,100736.95
2023-02-22T02:15:17.641Z,100739.58
2023-02-22T02:17:51.339Z,100739.77
2023-02-22T02:20:29.273Z,100738.48
2023-02-22T02:23:15.214Z,100739.15
2023-02-22T02:26:37.749Z,100735.66
2023-02-22T02:29:37.210Z,100725.91
2023-02-22T02:32:33.247Z,100729.02
2023-02-22T02:35:12.671Z,100728.54
2023-02-22T02:37:57.762Z,100726.52
2023-02-22T02:40:39.480Z,100724.39
2023-02-22T02:43:18.784Z,100724.06
2023-02-22T02:45:57.229Z,100727.40
2023-02-22T02:48:33.796Z,100725.63
2023-02-22T02:51:14.466Z,100723.52
2023-02-22T02:53:51.422Z,100724.98
2023-02-22T02:56:24.566Z,100725.66
2023-02-22T02:58:57.588Z,100727.50
2023-02-22T03:01:57.708Z,100727.05
2023-02-22T03:04:46.006Z,100731.27
2023-02-22T03:07:46.718Z,100733.33
2023-02-22T03:10:37.871Z,100736.61
2023-02-22T03:13:20.770Z,100719.06
2023-02-22T03:16:05.114Z,100731.67
2023-02-22T03:18:52.115Z,100737.73
2023-02-22T03:21:33.665Z,100731.60
2023-02-22T03:24:13.852Z,100728.68
2023-02-22T03:26:53.415Z,100726.58
2023-02-22T03:29:30.087Z,100726.17
2023-02-22T03:32:04.965Z,100721.62
2023-02-22T03:34:43.961Z,100724.77
2023-02-22T03:37:22.046Z,100725.26
2023-02-22T03:40:00.949Z,100728.86
2023-02-22T03:42:39.075Z,100732.39
2023-02-22T03:45:15.708Z,100738.77
2023-02-22T03:47:50.911Z,100740.57
2023-02-22T03:50:27.228Z,100745.15
2023-02-22T03:53:00.464Z,100747.16
2023-02-22T03:55:34.726Z,100746.88
2023-02-22T03:58:13.025Z,100748.11
2023-02-22T04:00:46.613Z,100748.60
2023-02-22T04:03:19.304Z,100746.45
2023-02-22T04:05:51.965Z,100746.92
2023-02-22T04:08:25.106Z,100739.59
2023-02-22T04:10:57.980Z,100757.30
2023-02-22T04:13:32.972Z,100763.50
2023-02-22T04:16:05.596Z,100767.20
2023-02-22T04:18:37.985Z,100767.29
2023-02-22T04:21:11.431Z,100767.84
2023-02-22T04:23:52.902Z,100767.05
2023-02-22T04:26:26.766Z,100765.75
2023-02-22T04:29:02.138Z,100770.29
2023-02-22T04:31:42.557Z,100772.21
2023-02-22T04:34:16.397Z,100776.83
2023-02-22T04:36:48.874Z,100758.55
2023-02-22T04:39:21.645Z,100773.96
2023-02-22T04:41:54.316Z,100771.95
2023-02-22T04:44:29.516Z,100774.34
2023-02-22T04:47:01.984Z,100773.12
2023-02-22T04:49:34.564Z,100776.24
2023-02-22T04:52:07.250Z,100776.89
2023-02-22T04:54:43.261Z,100776.12
2023-02-22T04:57:15.789Z,100777.68
2023-02-22T04:59:49.152Z,100781.92
2023-02-22T05:02:21.905Z,100779.98
2023-02-22T05:04:55.182Z,100779.66
2023-02-22T05:07:27.799Z,100780.33
2023-02-22T05:10:02.908Z,100760.40
2023-02-22T05:12:36.249Z,100777.20
2023-02-22T05:15:10.076Z,100777.44
2023-02-22T05:17:43.778Z,100778.42
2023-02-22T05:20:24.412Z,100779.21
2023-02-22T05:22:57.561Z,100777.40
2023-02-22T05:25:30.439Z,100772.60
2023-02-22T05:28:05.121Z,100771.87
2023-02-22T05:30:39.751Z,100773.23
2023-02-22T05:33:14.373Z,100771.91
2023-02-22T05:35:47.453Z,100777.16
2023-02-22T05:38:20.042Z,100783.23
2023-02-22T05:40:53.003Z,100787.18
2023-02-22T05:43:25.549Z,100787.73
2023-02-22T05:45:58.250Z,100777.48
2023-02-22T05:48:31.191Z,100793.00
2023-02-22T05:51:03.993Z,100796.15
2023-02-22T05:53:36.946Z,100799.42
2023-02-22T05:56:10.380Z,100800.95
2023-02-22T05:58:45.782Z,100801.21
2023-02-22T06:01:19.340Z,100807.84
2023-02-22T06:03:52.867Z,100809.91
2023-02-22T06:06:25.828Z,100810.80
2023-02-22T06:08:58.532Z,100811.02
2023-02-22T06:11:31.014Z,100813.38
2023-02-22T06:14:03.384Z,100814.91
2023-02-22T06:16:35.967Z,100823.30
2023-02-22T06:19:09.285Z,100822.38
2023-02-22T06:21:52.070Z,100828.54
2023-02-22T06:24:25.131Z,100832.90
2023-02-22T06:27:01.074Z,100830.85
2023-02-22T06:29:33.962Z,100832.59
2023-02-22T06:32:07.625Z,100832.57
2023-02-22T06:34:43.792Z,100806.05
2023-02-22T06:37:17.111Z,100840.88
2023-02-22T06:39:50.006Z,100844.80
2023-02-22T06:42:22.928Z,100846.23
2023-02-22T06:44:56.044Z,100847.13
2023-02-22T06:47:29.794Z,100817.85
2023-02-22T06:50:02.918Z,100849.27
2023-02-22T06:52:35.331Z,100839.41
2023-02-22T06:55:08.776Z,100854.45
2023-02-22T06:57:45.565Z,100858.99
2023-02-22T07:00:22.085Z,100858.70
2023-02-22T07:02:55.173Z,100856.45
2023-02-22T07:05:29.378Z,100856.56
2023-02-22T07:08:08.548Z,100851.68
2023-02-22T07:10:41.793Z,100854.27
2023-02-22T07:13:15.495Z,100852.69
2023-02-22T07:15:47.898Z,100856.89
2023-02-22T07:18:20.466Z,100850.02
2023-02-22T07:20:53.326Z,100854.35
2023-02-22T07:23:25.893Z,100860.40
2023-02-22T07:26:01.185Z,100863.14
2023-02-22T07:28:33.726Z,100868.48
2023-02-22T07:31:06.318Z,100867.81
2023-02-22T07:33:39.229Z,100870.54
2023-02-22T07:36:13.882Z,100874.80
2023-02-22T07:38:46.668Z,100869.36
2023-02-22T07:41:19.361Z,100869.09
2023-02-22T07:43:51.901Z,100871.02
2023-02-22T07:46:24.629Z,100870.90
2023-02-22T07:48:57.961Z,100867.38
2023-02-22T07:51:30.404Z,100869.19
2023-02-22T07:54:02.872Z,100867.91
2023-02-22T07:56:35.433Z,100867.59
2023-02-22T07:59:09.414Z,100857.98
2023-02-22T08:01:42.039Z,100866.45
2023-02-22T08:04:14.424Z,100852.78
2023-02-22T08:06:46.983Z,100874.33
2023-02-22T08:09:19.649Z,100878.23
2023-02-22T08:11:52.156Z,100873.92
2023-02-22T08:14:24.741Z,100876.81
2023-02-22T08:16:57.258Z,100881.98
2023-02-22T08:19:29.859Z,100883.81
2023-02-22T08:22:02.589Z,100888.52
2023-02-22T08:24:35.104Z,100887.73
2023-02-22T08:27:08.111Z,100891.78
2023-02-22T08:29:40.773Z,100893.79
2023-02-22T08:32:13.762Z,100884.40
2023-02-22T08:34:46.843Z,100900.64
2023-02-22T08:37:20.224Z,100899.77
2023-02-22T08:39:54.074Z,100888.08
2023-02-22T08:42:26.594Z,100907.32
2023-02-22T08:44:58.942Z,100904.36
2023-02-22T08:47:31.484Z,100901.49
2023-02-22T08:50:04.377Z,100905.11
2023-02-22T08:52:36.951Z,100887.02
2023-02-22T08:55:10.108Z,100893.65
2023-02-22T08:57:42.495Z,100908.56
2023-02-22T09:00:18.548Z,100912.38
2023-02-22T09:02:51.185Z,100912.11
2023-02-22T09:05:24.655Z,100910.51
2023-02-22T09:07:57.488Z,100914.81
2023-02-22T09:10:33.032Z,100912.21
2023-02-22T09:13:06.464Z,100919.16
2023-02-22T09:15:39.970Z,100917.86
2023-02-22T09:18:15.474Z,100918.91
2023-02-22T09:20:48.816Z,100915.90
2023-02-22T09:23:21.753Z,100922.01
2023-02-22T09:25:54.245Z,100915.95
2023-02-22T09:28:28.300Z,100916.88
2023-02-22T09:31:01.451Z,100901.04
2023-02-22T09:33:34.577Z,100918.77
2023-02-22T09:36:08.580Z,100920.30
2023-02-22T09:38:41.636Z,100918.83
2023-02-22T09:41:21.320Z,100914.06
2023-02-22T09:44:07.843Z,100914.66
2023-02-22T09:46:42.173Z,100912.16
2023-02-22T09:49:22.837Z,100911.83
2023-02-22T09:52:00.736Z,100915.20
2023-02-22T09:54:40.044Z,100919.39
2023-02-22T09:57:20.190Z,100890.92
2023-02-22T10:00:07.823Z,100917.39
2023-02-22T10:02:53.686Z,100918.09
2023-02-22T10:05:31.357Z,100916.02
2023-02-22T10:08:06.145Z,100914.41
2023-02-22T10:10:46.182Z,100914.36
2023-02-22T10:13:30.064Z,100915.25
2023-02-22T10:16:08.719Z,100915.14
2023-02-22T10:19:12.286Z,100915.55
2023-02-22T10:22:15.739Z,100918.65
2023-02-22T10:24:59.518Z,100920.48
2023-02-22T10:27:38.672Z,100916.83
2023-02-22T10:30:25.241Z,100921.84
2023-02-22T10:33:05.457Z,100905.55
2023-02-22T10:35:41.149Z,100923.58
2023-02-22T10:38:22.133Z,100908.27
2023-02-22T10:40:59.390Z,100917.80
2023-02-22T10:43:33.471Z,100923.44
2023-02-22T10:46:09.298Z,100924.84
2023-02-22T10:48:44.058Z,100924.42
2023-02-22T10:51:15.139Z,100928.16
2023-02-22T10:53:58.387Z,100924.11
2023-02-22T10:56:34.361Z,100921.73
2023-02-22T10:59:07.913Z,100920.74
2023-02-22T11:01:41.659Z,100916.98
2023-02-22T11:04:16.899Z,100913.88
2023-02-22T11:07:07.794Z,100915.38
2023-02-22T11:09:52.209Z,100914.44
2023-02-22T11:12:32.100Z,100907.27
2023-02-22T11:15:29.649Z,100897.30
2023-02-22T11:18:02.611Z,100909.56
2023-02-22T11:20:40.538Z,100906.12
2023-02-22T11:23:13.693Z,100903.35
2023-02-22T11:25:46.345Z,100899.00
2023-02-22T11:28:31.042Z,100894.55
2023-02-22T11:31:15.511Z,100892.23
2023-02-22T11:36:40.614Z,100888.14
2023-02-22T11:39:27.591Z,100892.36
2023-02-22T11:42:00.229Z,100892.64
2023-02-22T11:44:34.488Z,100897.86
2023-02-22T11:47:14.182Z,100893.85
2023-02-22T11:49:47.679Z,100890.51
2023-02-22T11:52:28.456Z,100876.52
2023-02-22T11:55:32.613Z,100894.66
2023-02-22T11:58:31.363Z,100877.59
2023-02-22T12:01:17.275Z,100894.48
2023-02-22T12:04:14.274Z,100893.66
2023-02-22T12:06:53.354Z,100892.91
2023-02-22T12:09:34.814Z,100895.64
2023-02-22T12:12:18.525Z,100894.24
2023-02-22T12:15:03.403Z,100892.45
2023-02-22T12:17:59.479Z,100892.79
2023-02-22T12:20:39.933Z,100892.12
2023-02-22T12:23:22.644Z,100895.36
2023-02-22T12:26:03.119Z,100896.02
2023-02-22T12:28:39.023Z,100894.88
2023-02-22T12:31:21.052Z,100891.91
2023-02-22T12:34:02.284Z,100893.14
2023-02-22T12:36:39.618Z,100893.10
2023-02-22T12:39:40.974Z,100884.39
2023-02-22T12:42:24.083Z,100891.13
2023-02-22T12:45:01.318Z,100888.45
2023-02-22T12:47:42.926Z,100884.52
2023-02-22T12:50:22.479Z,100885.81
2023-02-22T12:53:02.810Z,100883.44
2023-02-22T12:55:45.771Z,100886.66
2023-02-22T12:58:27.087Z,100889.52
2023-02-22T13:01:06.698Z,100892.30
2023-02-22T13:03:42.619Z,100895.73
2023-02-22T13:06:36.485Z,100893.43
2023-02-22T13:09:31.981Z,100894.16
2023-02-22T13:12:13.034Z,100880.86
2023-02-22T13:14:59.122Z,100890.34
2023-02-22T13:17:38.119Z,100889.02
2023-02-22T13:20:19.098Z,100884.01
2023-02-22T13:22:59.205Z,100884.13
2023-02-22T13:25:39.532Z,100870.80
2023-02-22T13:28:25.250Z,100877.67
2023-02-22T13:31:13.558Z,100879.52
2023-02-22T13:34:04.708Z,100876.14
2023-02-22T13:36:47.828Z,100881.20
2023-02-22T13:39:42.023Z,100880.61
2023-02-22T13:42:38.046Z,100875.77
2023-02-22T13:45:35.085Z,100880.69
2023-02-22T13:48:39.361Z,100877.27
2023-02-22T13:51:22.193Z,100868.08
2023-02-22T13:54:00.703Z,100878.21
2023-02-22T13:56:33.609Z,100877.92
2023-02-22T13:59:07.555Z,100881.48
2023-02-22T14:01:49.407Z,100881.08
2023-02-22T14:04:45.489Z,100882.36
2023-02-22T14:07:58.177Z,100880.61
2023-02-22T14:10:55.274Z,100882.34
2023-02-22T14:13:29.850Z,100876.48
2023-02-22T14:16:24.848Z,100873.33
2023-02-22T14:19:07.585Z,100874.56
2023-02-22T14:21:56.092Z,100874.58
2023-02-22T14:24:29.588Z,100873.54
2023-02-22T14:27:05.477Z,100874.23
2023-02-22T14:29:38.486Z,100873.95
2023-02-22T14:32:13.076Z,100877.13
2023-02-22T14:34:54.013Z,100876.32
2023-02-22T14:37:30.628Z,100875.73
2023-02-22T14:40:13.298Z,100866.38
2023-02-22T14:42:50.995Z,100862.46
2023-02-22T14:45:30.068Z,100872.38
2023-02-22T14:48:11.747Z,100871.44
2023-02-22T14:50:50.545Z,100871.27
2023-02-22T14:53:30.915Z,100871.02
2023-02-22T14:56:07.836Z,100872.17
2023-02-22T14:58:46.161Z,100872.99
2023-02-22T15:01:44.369Z,100872.64
2023-02-22T15:04:25.565Z,100872.30
2023-02-22T15:07:01.350Z,100871.72
2023-02-22T15:09:37.612Z,100871.73
2023-02-22T15:12:22.544Z,100873.71
2023-02-22T15:15:14.802Z,100874.64
2023-02-22T15:17:48.842Z,100876.79
2023-02-22T15:20:25.142Z,100873.92
2023-02-22T15:23:03.307Z,100874.27
2023-02-22T15:25:37.875Z,100872.61
2023-02-22T15:28:15.087Z,100875.08
2023-02-22T15:30:47.795Z,100873.30
2023-02-22T15:33:24.445Z,100874.41
2023-02-22T15:35:59.567Z,100873.83
2023-02-22T15:38:31.335Z,100871.92
2023-02-22T15:41:08.466Z,100875.18
2023-02-22T15:43:42.275Z,100863.69
2023-02-22T15:46:15.666Z,100875.51
2023-02-22T15:49:07.394Z,100873.88
2023-02-22T15:51:45.151Z,100875.21
2023-02-22T15:54:27.137Z,100869.98
2023-02-22T15:57:00.888Z,100877.63
2023-02-22T15:59:35.158Z,100861.87
2023-02-22T16:02:07.662Z,100878.51
2023-02-22T16:04:42.199Z,100885.39
2023-02-22T16:07:21.334Z,100883.63
2023-02-22T16:09:54.815Z,100881.48
2023-02-22T16:12:29.482Z,100883.08
2023-02-22T16:15:00.555Z,100881.21
2023-02-22T16:17:41.145Z,100882.45
2023-02-22T16:20:37.597Z,100886.46
2023-02-22T16:23:27.975Z,100892.07
2023-02-22T16:26:19.285Z,100898.11
2023-02-22T16:28:53.690Z,100903.52
2023-02-22T16:31:32.108Z,100908.45
2023-02-22T16:34:06.380Z,100905.45
2023-02-22T16:36:45.365Z,100910.63
2023-02-22T16:39:24.824Z,100910.27
2023-02-22T16:41:59.625Z,100914.95
2023-02-22T16:44:30.804Z,100894.43
2023-02-22T16:47:03.690Z,100925.94
2023-02-22T16:49:36.202Z,100927.78
2023-02-22T16:52:10.189Z,100925.77
2023-02-22T16:54:46.520Z,100922.30
2023-02-22T16:57:22.878Z,100922.13
2023-02-22T16:59:55.720Z,100919.00
2023-02-22T17:02:28.495Z,100920.72
2023-02-22T17:05:01.108Z,100919.58
2023-02-22T17:07:33.595Z,100921.19
2023-02-22T17:10:06.188Z,100919.51
2023-02-22T17:12:41.677Z,100923.92
2023-02-22T17:15:21.797Z,100924.93
2023-02-22T17:17:55.861Z,100925.15
2023-02-22T17:20:31.097Z,100925.11
2023-02-22T17:23:05.369Z,100926.63
2023-02-22T17:25:41.087Z,100924.59
2023-02-22T17:28:13.997Z,100929.04
2023-02-22T17:30:49.071Z,100929.39
2023-02-22T17:33:26.863Z,100931.23
2023-02-22T17:36:02.194Z,100925.14
2023-02-22T17:38:35.404Z,100945.08
2023-02-22T17:41:09.506Z,100941.95
2023-02-22T17:43:42.030Z,100940.31
2023-02-22T17:46:14.735Z,100935.39
2023-02-22T17:48:48.506Z,100939.73
2023-02-22T17:51:21.349Z,100935.60
2023-02-22T17:53:54.879Z,100936.55
2023-02-22T17:56:27.592Z,100933.13
2023-02-22T17:59:01.043Z,100932.15
2023-02-22T18:01:35.982Z,100933.27
2023-02-22T18:04:09.139Z,100930.67
2023-02-22T18:06:42.001Z,100930.39
2023-02-22T18:09:17.923Z,100929.65
2023-02-22T18:11:50.585Z,100929.21
2023-02-22T18:14:23.780Z,100913.91
2023-02-22T18:16:56.310Z,100927.77
2023-02-22T18:19:29.337Z,100923.19
2023-02-22T18:22:03.130Z,100927.30
2023-02-22T18:24:36.618Z,100926.33
2023-02-22T18:27:11.916Z,100924.70
2023-02-22T18:29:44.786Z,100922.34
2023-02-22T18:32:17.435Z,100922.66
2023-02-22T18:34:50.495Z,100902.50
2023-02-22T18:37:23.516Z,100919.91
2023-02-22T18:39:56.041Z,100918.61
2023-02-22T18:42:29.534Z,100919.60
2023-02-22T18:45:05.025Z,100920.84
2023-02-22T18:47:44.199Z,100922.83
2023-02-22T18:50:17.367Z,100922.79
2023-02-22T18:52:50.274Z,100917.77
2023-02-22T18:55:24.490Z,100919.38
2023-02-22T18:57:57.638Z,100907.39
2023-02-22T19:00:30.508Z,100914.88
2023-02-22T19:03:05.172Z,100911.44
2023-02-22T19:05:39.208Z,100912.26
2023-02-22T19:08:11.598Z,100913.27
2023-02-22T19:10:44.916Z,100900.43
2023-02-22T19:13:18.990Z,100911.36
2023-02-22T19:15:51.517Z,100906.92
2023-02-22T19:18:25.074Z,100906.71
2023-02-22T19:21:01.684Z,100910.05
2023-02-22T19:23:35.307Z,100906.92
2023-02-22T19:26:09.493Z,100907.26
2023-02-22T19:28:42.642Z,100908.38
2023-02-22T19:31:20.531Z,100900.59
2023-02-22T19:33:54.392Z,100886.67
2023-02-22T19:36:27.200Z,100908.03
2023-02-22T19:39:02.085Z,100907.86
2023-02-22T19:41:38.316Z,100910.14
2023-02-22T19:44:11.106Z,100907.55
2023-02-22T19:46:44.061Z,100908.15
2023-02-22T19:49:17.886Z,100906.33
2023-02-22T19:51:51.069Z,100894.17
2023-02-22T19:54:24.058Z,100892.05
2023-02-22T19:56:58.378Z,100909.33
2023-02-22T19:59:31.078Z,100907.05
2023-02-22T20:02:03.623Z,100906.36
2023-02-22T20:04:37.492Z,100873.27
2023-02-22T20:07:10.763Z,100909.36
2023-02-22T20:09:43.890Z,100879.05
2023-02-22T20:12:17.250Z,100908.61
2023-02-22T20:14:50.413Z,100909.79
2023-02-22T20:17:23.857Z,100908.02
2023-02-22T20:19:58.485Z,100911.30
2023-02-22T20:22:31.916Z,100912.33
2023-02-22T20:25:05.772Z,100906.61
2023-02-22T20:27:38.685Z,100869.86
2023-02-22T20:30:13.372Z,100907.59
2023-02-22T20:32:47.865Z,100904.82
2023-02-22T20:35:22.310Z,100905.83
2023-02-22T20:37:58.158Z,100904.84
2023-02-22T20:40:30.630Z,100904.14
2023-02-22T20:43:05.307Z,100905.80
2023-02-22T20:45:40.267Z,100904.30
2023-02-22T20:48:12.826Z,100907.00
2023-02-22T20:50:45.504Z,100899.08
2023-02-22T20:53:19.640Z,100898.08
2023-02-22T20:55:55.722Z,100895.34
2023-02-22T20:58:31.143Z,100894.99
2023-02-22T21:01:08.323Z,100894.22
2023-02-22T21:03:42.586Z,100892.52
2023-02-22T21:06:17.800Z,100896.42
2023-02-22T21:08:54.844Z,100896.58
2023-02-22T21:11:28.919Z,100891.67
2023-02-22T21:14:02.345Z,100884.51
2023-02-22T21:16:36.562Z,100880.97
2023-02-22T21:19:10.340Z,100884.89
2023-02-22T21:21:43.919Z,100882.70
2023-02-22T21:24:16.705Z,100879.48
2023-02-22T21:26:49.241Z,100875.56
2023-02-22T21:29:22.040Z,100877.52
2023-02-22T21:31:54.574Z,100877.29
2023-02-22T21:34:27.316Z,100883.23
2023-02-22T21:37:00.124Z,100880.83
2023-02-22T21:39:32.995Z,100880.08
2023-02-22T21:42:07.339Z,100882.58
2023-02-22T21:44:40.975Z,100877.70
2023-02-22T21:47:13.799Z,100863.78
2023-02-22T21:49:46.552Z,100876.41
2023-02-22T21:52:19.894Z,100880.11
2023-02-22T21:54:52.569Z,100883.23
2023-02-22T21:57:26.244Z,100884.39
2023-02-22T21:59:58.821Z,100878.84
2023-02-22T22:02:32.308Z,100881.05
2023-02-22T22:05:05.959Z,100878.03
2023-02-22T22:07:38.528Z,100879.41
2023-02-22T22:10:18.127Z,100881.73
2023-02-22T22:12:50.604Z,100878.73
2023-02-22T22:15:23.667Z,100874.96
2023-02-22T22:17:59.473Z,100876.43
2023-02-22T22:20:32.023Z,100873.36
2023-02-22T22:23:04.796Z,100867.45
2023-02-22T22:25:38.479Z,100866.99
2023-02-22T22:28:12.562Z,100866.22
2023-02-22T22:30:45.052Z,100863.45
2023-02-22T22:33:17.758Z,100862.27
2023-02-22T22:35:50.153Z,100862.13
2023-02-22T22:38:22.776Z,100859.71
2023-02-22T22:40:55.825Z,100842.34
2023-02-22T22:43:28.626Z,100840.20
2023-02-22T22:46:03.992Z,100857.67
2023-02-22T22:48:39.135Z,100863.07
2023-02-22T22:51:14.574Z,100866.28
2023-02-22T22:53:49.240Z,100868.52
2023-02-22T22:56:26.622Z,100867.65
2023-02-22T22:59:00.506Z,100869.67
2023-02-22T23:01:39.340Z,100869.33
2023-02-22T23:04:13.654Z,100870.53
2023-02-22T23:06:47.577Z,100866.98
2023-02-22T23:09:22.098Z,100868.86
2023-02-22T23:11:57.036Z,100869.73
2023-02-22T23:14:31.340Z,100867.88
2023-02-22T23:17:04.513Z,100864.80
2023-02-22T23:19:38.777Z,100862.50
2023-02-22T23:22:14.042Z,100842.92
2023-02-22T23:24:46.454Z,100860.68
2023-02-22T23:27:19.112Z,100858.92
2023-02-22T23:29:52.548Z,100850.20
2023-02-22T23:32:26.904Z,100852.38
2023-02-22T23:35:01.800Z,100852.42
2023-02-22T23:37:35.581Z,100852.25
2023-02-22T23:40:17.204Z,100851.33
2023-02-22T23:42:54.804Z,100849.40
2023-02-22T23:45:28.532Z,100849.08
2023-02-22T23:48:01.779Z,100845.73
2023-02-22T23:50:36.431Z,100847.84
2023-02-22T23:53:15.293Z,100839.70
2023-02-22T23:55:49.200Z,100836.88
2023-02-22T23:58:23.190Z,100835.30
